createdAt,value
2023-03-29T08:05:57.590Z,9.00
2023-03-29T08:08:24.854Z,9.00
2023-03-29T08:10:51.899Z,9.10
2023-03-29T08:13:18.632Z,9.10
2023-03-29T08:15:47.256Z,9.20
2023-03-29T08:18:14.496Z,9.20
2023-03-29T08:20:41.420Z,9.20
2023-03-29T08:23:08.137Z,9.20
2023-03-29T08:25:35.282Z,9.20
2023-03-29T08:28:02.240Z,9.30
2023-03-29T08:30:28.986Z,9.30
2023-03-29T08:32:56.220Z,9.40
2023-03-29T08:35:23.279Z,9.40
2023-03-29T08:37:49.889Z,9.50
2023-03-29T08:40:21.508Z,9.50
2023-03-29T08:43:26.000Z,9.50
2023-03-29T08:46:08.601Z,9.60
2023-03-29T08:48:44.429Z,9.70
2023-03-29T08:51:29.399Z,9.80
2023-03-29T08:54:05.267Z,9.80
2023-03-29T08:56:34.866Z,9.80
2023-03-29T08:59:01.674Z,9.90
2023-03-29T09:01:34.886Z,9.90
2023-03-29T09:04:08.977Z,9.90
2023-03-29T09:06:36.271Z,10.00
2023-03-29T09:09:02.929Z,10.00
2023-03-29T09:11:52.689Z,9.90
2023-03-29T09:14:37.609Z,9.90
2023-03-29T09:17:07.254Z,9.90
2023-03-29T09:19:55.242Z,10.00
2023-03-29T09:22:42.801Z,10.10
2023-03-29T09:25:25.164Z,10.10
2023-03-29T09:28:04.824Z,10.20
2023-03-29T09:31:05.180Z,10.30
2023-03-29T09:33:44.921Z,10.30
2023-03-29T09:36:24.862Z,10.40
2023-03-29T09:38:54.369Z,10.40
2023-03-29T09:41:26.479Z,10.40
2023-03-29T09:43:55.546Z,10.40
2023-03-29T09:46:38.493Z,10.40
2023-03-29T09:49:12.574Z,10.50
2023-03-29T09:51:41.895Z,10.50
2023-03-29T09:54:12.420Z,10.70
2023-03-29T09:56:39.773Z,10.70
2023-03-29T09:59:10.263Z,10.70
2023-03-29T10:01:39.708Z,10.90
2023-03-29T10:04:08.761Z,11.00
2023-03-29T10:06:37.526Z,11.00
2023-03-29T10:09:04.610Z,11.00
2023-03-29T10:11:39.234Z,11.00
2023-03-29T10:14:33.295Z,11.00
2023-03-29T10:17:00.476Z,11.10
2023-03-29T10:19:35.679Z,11.00
2023-03-29T10:22:13.681Z,11.00
2023-03-29T10:24:40.299Z,11.00
2023-03-29T10:27:10.894Z,10.80
2023-03-29T10:29:47.136Z,10.80
2023-03-29T10:32:24.023Z,11.00
2023-03-29T10:34:52.121Z,10.90
2023-03-29T10:37:20.322Z,11.00
2023-03-29T10:39:48.764Z,11.00
2023-03-29T10:42:18.115Z,11.30
2023-03-29T10:44:54.847Z,11.30
2023-03-29T10:47:22.138Z,11.20
2023-03-29T10:49:58.920Z,11.10
2023-03-29T10:52:25.989Z,11.10
2023-03-29T10:54:56.459Z,11.10
2023-03-29T10:58:01.937Z,11.20
2023-03-29T11:00:37.111Z,11.30
2023-03-29T11:03:29.740Z,11.20
2023-03-29T11:06:49.280Z,11.20
2023-03-29T11:09:48.407Z,11.30
2023-03-29T11:12:38.890Z,11.30
2023-03-29T11:15:29.018Z,11.30
2023-03-29T11:18:24.088Z,11.30
2023-03-29T11:21:05.480Z,11.30
2023-03-29T11:23:42.915Z,11.40
2023-03-29T11:26:09.734Z,11.40
2023-03-29T11:28:56.189Z,11.40
2023-03-29T11:31:28.918Z,11.40
2023-03-29T11:34:22.782Z,11.50
2023-03-29T11:37:17.978Z,11.50
2023-03-29T11:39:47.648Z,11.60
2023-03-29T11:42:23.510Z,11.60
2023-03-29T11:44:55.096Z,11.60
2023-03-29T11:47:23.647Z,11.70
2023-03-29T11:49:58.458Z,11.80
2023-03-29T11:52:33.822Z,11.90
2023-03-29T11:55:03.837Z,11.90
2023-03-29T11:57:38.338Z,11.80
2023-03-29T12:00:29.664Z,11.80
2023-03-29T12:03:24.041Z,11.90
2023-03-29T12:06:07.900Z,11.90
2023-03-29T12:08:48.081Z,11.80
2023-03-29T12:11:27.134Z,11.80
2023-03-29T12:14:05.704Z,11.80
2023-03-29T12:16:41.712Z,11.80
2023-03-29T12:19:32.045Z,11.70
2023-03-29T12:22:00.708Z,11.70
2023-03-29T12:24:31.846Z,11.60
2023-03-29T12:27:19.854Z,11.60
2023-03-29T12:30:11.048Z,11.60
2023-03-29T12:33:08.043Z,11.60
2023-03-29T12:35:44.131Z,11.60
2023-03-29T12:38:24.109Z,11.70
2023-03-29T12:41:00.116Z,11.80
2023-03-29T12:43:33.256Z,11.90
2023-03-29T12:46:08.852Z,12.00
2023-03-29T12:48:40.297Z,12.00
2023-03-29T12:51:23.440Z,12.00
2023-03-29T12:53:53.580Z,12.00
2023-03-29T12:56:23.725Z,12.10
2023-03-29T12:59:17.778Z,12.30
2023-03-29T13:02:01.627Z,12.30
2023-03-29T13:05:00.381Z,12.40
2023-03-29T13:07:53.060Z,12.50
2023-03-29T13:10:31.805Z,12.40
2023-03-29T13:13:10.579Z,12.40
2023-03-29T13:15:37.892Z,12.50
2023-03-29T13:18:46.948Z,12.60
2023-03-29T13:21:18.924Z,12.70
2023-03-29T13:24:01.110Z,12.80
2023-03-29T13:26:52.898Z,12.80
2023-03-29T13:29:26.758Z,12.80
2023-03-29T13:32:14.236Z,12.80
2023-03-29T13:34:46.529Z,12.90
2023-03-29T13:37:37.781Z,13.00
2023-03-29T13:40:30.043Z,13.10
2023-03-29T13:43:08.202Z,13.10
2023-03-29T13:45:37.156Z,13.20
2023-03-29T13:48:19.873Z,13.20
2023-03-29T13:50:57.006Z,13.20
2023-03-29T13:53:37.847Z,13.40
2023-03-29T13:56:08.116Z,13.40
2023-03-29T13:58:45.502Z,13.50
2023-03-29T14:01:28.942Z,13.60
2023-03-29T14:03:57.196Z,13.50
2023-03-29T14:06:31.464Z,13.60
2023-03-29T14:08:59.992Z,13.70
2023-03-29T14:11:29.673Z,13.80
2023-03-29T14:13:59.195Z,13.80
2023-03-29T14:16:33.262Z,13.90
2023-03-29T14:19:03.832Z,13.80
2023-03-29T14:21:30.669Z,13.90
2023-03-29T14:24:02.323Z,13.90
2023-03-29T14:26:34.585Z,13.90
2023-03-29T14:29:02.561Z,14.00
2023-03-29T14:31:35.480Z,14.20
2023-03-29T14:34:06.297Z,14.20
2023-03-29T14:36:34.414Z,14.30
2023-03-29T14:39:05.388Z,14.40
2023-03-29T14:41:35.928Z,14.40
2023-03-29T14:44:04.777Z,14.40
2023-03-29T14:46:33.960Z,14.50
2023-03-29T14:49:02.326Z,14.60
2023-03-29T14:51:31.130Z,14.70
2023-03-29T14:54:00.306Z,14.70
2023-03-29T14:56:27.478Z,14.60
2023-03-29T14:58:56.660Z,14.60
2023-03-29T15:01:26.092Z,14.60
2023-03-29T15:04:11.034Z,14.70
2023-03-29T15:06:41.010Z,14.70
2023-03-29T15:09:14.879Z,14.70
2023-03-29T15:11:41.622Z,14.70
2023-03-29T15:14:15.592Z,14.80
2023-03-29T15:16:45.046Z,14.80
2023-03-29T15:19:20.891Z,14.70
2023-03-29T15:21:52.550Z,14.70
2023-03-29T15:24:21.844Z,14.70
2023-03-29T15:27:18.224Z,14.70
2023-03-29T15:29:46.902Z,14.70
2023-03-29T15:32:37.166Z,14.70
2023-03-29T15:35:07.907Z,14.70
2023-03-29T15:37:34.924Z,14.70
2023-03-29T15:40:09.636Z,14.70
2023-03-29T15:42:36.596Z,14.70
2023-03-29T15:45:07.770Z,14.70
2023-03-29T15:47:34.576Z,14.70
2023-03-29T15:50:01.268Z,14.60
2023-03-29T15:52:27.998Z,14.60
2023-03-29T15:54:54.748Z,14.60
2023-03-29T15:57:21.894Z,14.60
2023-03-29T15:59:49.081Z,14.60
2023-03-29T16:02:17.351Z,14.60
2023-03-29T16:04:44.103Z,14.60
2023-03-29T16:07:14.976Z,14.60
2023-03-29T16:09:42.115Z,14.50
2023-03-29T16:12:10.299Z,14.50
2023-03-29T16:14:37.322Z,14.50
2023-03-29T16:17:04.770Z,14.50
2023-03-29T16:19:32.606Z,14.40
2023-03-29T16:22:01.242Z,14.50
2023-03-29T16:24:31.368Z,14.40
2023-03-29T16:27:03.780Z,14.40
2023-03-29T16:29:45.143Z,14.40
2023-03-29T16:32:11.951Z,14.40
2023-03-29T16:34:39.083Z,14.30
2023-03-29T16:37:06.144Z,14.30
2023-03-29T16:39:32.919Z,14.30
2023-03-29T16:42:06.892Z,14.20
2023-03-29T16:44:39.778Z,14.30
2023-03-29T16:47:07.226Z,14.20
2023-03-29T16:49:39.283Z,14.10
2023-03-29T16:52:07.132Z,14.10
2023-03-29T16:54:40.442Z,14.10
2023-03-29T16:57:10.771Z,14.10
2023-03-29T16:59:37.739Z,14.10
2023-03-29T17:02:04.360Z,14.10
2023-03-29T17:04:31.672Z,14.10
2023-03-29T17:07:01.488Z,14.10
2023-03-29T17:09:29.804Z,14.10
2023-03-29T17:11:56.636Z,14.10
2023-03-29T17:14:25.381Z,14.10
2023-03-29T17:16:53.302Z,14.00
2023-03-29T17:19:19.937Z,14.00
2023-03-29T17:21:46.677Z,14.00
2023-03-29T17:24:13.324Z,14.00
2023-03-29T17:26:39.983Z,14.00
2023-03-29T17:29:06.807Z,14.00
2023-03-29T17:31:34.800Z,13.90
2023-03-29T17:34:01.544Z,13.90
2023-03-29T17:36:28.969Z,13.90
2023-03-29T17:38:55.860Z,13.90
2023-03-29T17:41:22.963Z,13.90
2023-03-29T17:43:50.911Z,13.80
2023-03-29T17:46:22.804Z,13.80
2023-03-29T17:48:51.276Z,13.80
2023-03-29T17:51:19.717Z,13.80
2023-03-29T17:53:46.725Z,13.70
2023-03-29T17:56:13.598Z,13.70
2023-03-29T17:58:40.246Z,13.70
2023-03-29T18:01:13.788Z,13.60
2023-03-29T18:03:40.514Z,13.60
2023-03-29T18:06:07.587Z,13.60
2023-03-29T18:08:34.689Z,13.60
2023-03-29T18:11:11.568Z,13.50
2023-03-29T18:13:39.758Z,13.50
2023-03-29T18:16:07.924Z,13.50
2023-03-29T18:18:35.098Z,13.50
2023-03-29T18:21:02.368Z,13.40
2023-03-29T18:23:29.260Z,13.30
2023-03-29T18:26:00.982Z,13.30
2023-03-29T18:28:28.792Z,13.20
2023-03-29T18:30:55.428Z,13.20
2023-03-29T18:33:22.144Z,13.20
2023-03-29T18:35:50.876Z,13.10
2023-03-29T18:38:19.136Z,13.10
2023-03-29T18:40:49.939Z,13.00
2023-03-29T18:43:16.679Z,12.90
2023-03-29T18:45:44.422Z,12.90
2023-03-29T18:48:11.277Z,12.90
2023-03-29T18:50:38.878Z,12.80
2023-03-29T18:53:05.474Z,12.80
2023-03-29T18:55:32.143Z,12.80
2023-03-29T18:57:58.830Z,12.80
2023-03-29T19:00:25.450Z,12.80
2023-03-29T19:02:52.280Z,12.80
2023-03-29T19:05:19.093Z,12.70
2023-03-29T19:07:45.721Z,12.70
2023-03-29T19:10:12.570Z,12.70
2023-03-29T19:12:39.325Z,12.70
2023-03-29T19:15:07.270Z,12.60
2023-03-29T19:17:34.097Z,12.50
2023-03-29T19:20:01.340Z,12.50
2023-03-29T19:22:28.122Z,12.40
2023-03-29T19:24:54.717Z,12.40
2023-03-29T19:27:21.437Z,12.40
2023-03-29T19:29:48.641Z,12.40
2023-03-29T19:32:15.484Z,12.40
2023-03-29T19:34:42.182Z,12.40
2023-03-29T19:37:09.052Z,12.40
2023-03-29T19:39:35.813Z,12.30
2023-03-29T19:42:02.452Z,12.40
2023-03-29T19:44:30.118Z,12.30
2023-03-29T19:46:56.847Z,12.40
2023-03-29T19:49:23.587Z,12.30
2023-03-29T19:51:54.404Z,12.40
2023-03-29T19:54:21.811Z,12.30
2023-03-29T19:56:49.540Z,12.30
2023-03-29T19:59:17.916Z,12.30
2023-03-29T20:01:51.073Z,12.30
2023-03-29T20:04:22.831Z,12.30
2023-03-29T20:06:49.570Z,12.30
2023-03-29T20:09:16.417Z,12.30
2023-03-29T20:11:49.557Z,12.30
2023-03-29T20:14:16.138Z,12.30
2023-03-29T20:16:44.186Z,12.30
2023-03-29T20:19:14.054Z,12.30
2023-03-29T20:21:40.820Z,12.30
2023-03-29T20:24:08.753Z,12.30
2023-03-29T20:26:35.589Z,12.30
2023-03-29T20:29:02.656Z,12.30
2023-03-29T20:31:29.932Z,12.30
2023-03-29T20:33:57.707Z,12.20
2023-03-29T20:36:26.431Z,12.20
2023-03-29T20:38:55.152Z,12.20
2023-03-29T20:41:22.878Z,12.20
2023-03-29T20:43:58.393Z,12.20
2023-03-29T20:46:33.448Z,12.20
2023-03-29T20:49:04.849Z,12.20
2023-03-29T20:51:32.174Z,12.20
2023-03-29T20:54:03.687Z,12.20
2023-03-29T20:56:37.408Z,12.30
2023-03-29T20:59:05.794Z,12.20
2023-03-29T21:01:35.018Z,12.20
2023-03-29T21:04:02.694Z,12.20
2023-03-29T21:06:30.118Z,12.20
2023-03-29T21:08:57.410Z,12.20
2023-03-29T21:11:24.038Z,12.20
2023-03-29T21:13:52.730Z,12.20
2023-03-29T21:16:20.588Z,12.20
2023-03-29T21:18:47.336Z,12.20
2023-03-29T21:21:13.947Z,12.20
2023-03-29T21:23:40.653Z,12.10
2023-03-29T21:26:07.953Z,12.10
2023-03-29T21:28:35.289Z,12.10
2023-03-29T21:31:06.223Z,12.20
2023-03-29T22:21:06.042Z,12.20
2023-03-29T22:23:33.646Z,12.20
2023-03-29T22:26:05.814Z,12.30
2023-03-29T22:28:33.072Z,12.30
2023-03-29T22:31:05.608Z,12.20
2023-03-29T22:33:33.581Z,12.20
2023-03-29T22:36:00.974Z,12.20
2023-03-29T22:38:28.584Z,12.30
2023-03-29T22:40:55.832Z,12.20
2023-03-29T22:43:22.640Z,12.30
2023-03-29T22:45:49.296Z,12.30
2023-03-29T22:48:16.024Z,12.30
2023-03-29T22:50:45.340Z,12.30
2023-03-29T22:53:12.205Z,12.20
2023-03-29T22:55:38.797Z,12.30
2023-03-29T22:58:05.592Z,12.20
2023-03-29T23:00:32.523Z,12.30
2023-03-29T23:02:59.355Z,12.30
2023-03-29T23:05:26.221Z,12.30
2023-03-29T23:07:52.912Z,12.30
2023-03-29T23:10:19.707Z,12.30
2023-03-29T23:12:46.692Z,12.40
2023-03-29T23:15:13.535Z,12.40
2023-03-29T23:17:40.205Z,12.40
2023-03-29T23:20:08.815Z,12.40
2023-03-29T23:22:36.298Z,12.40
2023-03-29T23:25:03.519Z,12.40
2023-03-29T23:27:30.136Z,12.40
2023-03-29T23:29:56.739Z,12.40
2023-03-29T23:32:23.427Z,12.40
2023-03-29T23:34:50.075Z,12.40
2023-03-29T23:37:16.792Z,12.40
2023-03-29T23:39:43.401Z,12.40
2023-03-29T23:42:10.604Z,12.40
2023-03-29T23:44:37.635Z,12.30
2023-03-29T23:47:04.278Z,12.40
2023-03-29T23:49:31.789Z,12.40
2023-03-29T23:52:00.230Z,12.40
2023-03-29T23:54:27.483Z,12.30
2023-03-29T23:56:54.416Z,12.30
2023-03-29T23:59:26.720Z,12.40
